Time;durP1;ratioP1;P1;durP2;ratioP2;P2;SDS_P1;SDS_P2;PMS_P1;PMS_P2;Temp;Humidity;BMP_temperature;BMP_pressure;BME280_temperature;BME280_humidity;BME280_pressure;Samples;Min_cycle;Max_cycle;Signal;HPM_P1;HPM_P2
2022/08/31 00:04:57;;;;;;;1.80;0.80;;;16.50;90.00;;;;;;5033658;28;20402;-77
2022/08/31 00:07:26;;;;;;;4.90;0.90;;;16.40;90.00;;;;;;5032268;28;20467;-76
2022/08/31 00:09:54;;;;;;;2.90;0.90;;;16.50;90.10;;;;;;5034227;28;20888;-76
2022/08/31 00:12:23;;;;;;;2.07;0.80;;;16.40;90.20;;;;;;5033152;28;20417;-76
2022/08/31 00:14:52;;;;;;;5.20;2.10;;;16.40;90.20;;;;;;5037190;28;20919;-76
2022/08/31 00:17:20;;;;;;;1.87;0.90;;;16.30;90.20;;;;;;5038072;28;20451;-77
2022/08/31 00:19:49;;;;;;;2.27;0.80;;;16.30;90.30;;;;;;5037514;28;20425;-77
2022/08/31 00:22:17;;;;;;;1.53;0.70;;;16.30;90.40;;;;;;5037482;28;20522;-76
2022/08/31 00:24:45;;;;;;;1.90;0.90;;;16.30;90.40;;;;;;5036923;28;21006;-77
2022/08/31 00:27:14;;;;;;;1.90;0.70;;;16.30;90.50;;;;;;5037155;28;20431;-76
2022/08/31 00:29:42;;;;;;;2.33;0.80;;;16.20;90.50;;;;;;5035794;28;20444;-76
2022/08/31 00:32:12;;;;;;;1.80;0.80;;;16.20;90.50;;;;;;5035498;28;20425;-76
2022/08/31 00:34:40;;;;;;;2.57;0.90;;;16.20;90.90;;;;;;5035596;28;20418;-77
2022/08/31 00:37:11;;;;;;;1.57;0.80;;;16.10;90.60;;;;;;5035832;28;20448;-76
2022/08/31 00:39:40;;;;;;;3.70;1.07;;;16.00;90.70;;;;;;5035568;28;20525;-77
2022/08/31 00:42:08;;;;;;;1.97;0.80;;;16.00;90.70;;;;;;5035849;28;20499;-76
2022/08/31 00:44:36;;;;;;;1.63;0.73;;;15.90;90.70;;;;;;5037469;28;20764;-78
2022/08/31 00:47:05;;;;;;;1.70;0.80;;;15.90;90.80;;;;;;5036367;28;20551;-76
2022/08/31 00:49:38;;;;;;;3.53;0.80;;;15.80;90.90;;;;;;5035342;28;20507;-77
2022/08/31 00:52:11;;;;;;;2.07;0.90;;;15.80;91.00;;;;;;5035473;28;20449;-76
2022/08/31 00:54:43;;;;;;;2.60;0.80;;;15.80;91.00;;;;;;5037210;28;20446;-77
2022/08/31 00:57:12;;;;;;;2.47;0.80;;;15.70;91.10;;;;;;5036542;28;20466;-77
2022/08/31 00:59:43;;;;;;;1.80;0.90;;;15.70;91.20;;;;;;5036084;28;20520;-78
2022/08/31 01:02:11;;;;;;;2.63;1.00;;;15.70;91.20;;;;;;5037979;28;20445;-78
2022/08/31 01:04:40;;;;;;;3.40;1.00;;;15.60;91.30;;;;;;5035839;28;20448;-76
2022/08/31 01:07:09;;;;;;;2.63;0.90;;;15.60;91.30;;;;;;5036681;28;20413;-76
2022/08/31 01:09:39;;;;;;;2.50;1.20;;;15.60;91.40;;;;;;5035306;28;20553;-77
2022/08/31 01:12:23;;;;;;;2.40;1.10;;;15.50;91.40;;;;;;5034946;28;20439;-76
2022/08/31 01:14:51;;;;;;;2.70;1.20;;;15.50;91.50;;;;;;5035117;28;20425;-76
2022/08/31 01:17:20;;;;;;;2.50;0.80;;;15.40;91.50;;;;;;5037158;28;20563;-78
2022/08/31 01:19:58;;;;;;;2.33;1.00;;;15.40;91.60;;;;;;5035111;28;20474;-76
2022/08/31 01:22:33;;;;;;;2.33;1.07;;;15.40;91.60;;;;;;5035183;28;20443;-78
2022/08/31 01:25:04;;;;;;;1.93;0.90;;;15.30;91.70;;;;;;5035921;28;20513;-76
2022/08/31 01:27:35;;;;;;;1.93;0.97;;;15.30;91.70;;;;;;5035577;28;20421;-78
2022/08/31 01:30:09;;;;;;;2.60;0.93;;;15.30;92.10;;;;;;5034997;28;20448;-77
2022/08/31 01:32:37;;;;;;;1.70;0.87;;;15.20;91.80;;;;;;5034736;28;20919;-77
2022/08/31 01:35:07;;;;;;;2.00;1.10;;;15.20;91.90;;;;;;5034669;28;20553;-77
2022/08/31 01:37:38;;;;;;;1.90;1.00;;;15.10;91.90;;;;;;5034492;28;20549;-77
2022/08/31 01:40:11;;;;;;;2.33;0.90;;;15.10;91.90;;;;;;5034537;28;20529;-77
2022/08/31 01:42:40;;;;;;;2.20;1.10;;;15.00;92.00;;;;;;5034508;28;20414;-77
2022/08/31 01:45:10;;;;;;;1.80;0.90;;;15.00;92.10;;;;;;5034189;28;20446;-76
2022/08/31 01:47:38;;;;;;;2.17;1.13;;;15.00;92.10;;;;;;5034475;28;21044;-78
2022/08/31 01:50:07;;;;;;;2.27;1.10;;;14.90;92.10;;;;;;5034438;28;20907;-77
2022/08/31 01:52:36;;;;;;;2.27;0.97;;;14.90;92.20;;;;;;5034516;28;20451;-77
2022/08/31 01:55:06;;;;;;;1.93;1.07;;;14.80;92.20;;;;;;5037327;28;20442;-77
2022/08/31 01:57:35;;;;;;;2.30;1.30;;;14.80;92.30;;;;;;5038392;28;20437;-77
2022/08/31 02:00:27;;;;;;;2.00;1.00;;;14.70;92.30;;;;;;5038743;28;20478;-77
2022/08/31 02:02:57;;;;;;;2.37;1.53;;;14.70;92.40;;;;;;5038157;28;20446;-77
2022/08/31 02:05:25;;;;;;;2.90;1.40;;;14.60;92.50;;;;;;5038139;28;21087;-77
2022/08/31 02:07:54;;;;;;;3.60;1.20;;;14.60;92.60;;;;;;5037908;28;20522;-77
2022/08/31 02:10:22;;;;;;;2.37;1.50;;;14.60;92.60;;;;;;5037713;28;20524;-77
2022/08/31 02:12:53;;;;;;;2.40;1.40;;;14.50;92.70;;;;;;5036943;28;20810;-77
2022/08/31 02:15:29;;;;;;;1.70;1.00;;;14.50;92.80;;;;;;5038364;28;20480;-77
2022/08/31 02:17:57;;;;;;;3.00;1.43;;;14.50;92.90;;;;;;5036644;28;20891;-77
2022/08/31 02:20:25;;;;;;;2.67;1.43;;;14.50;92.90;;;;;;5036958;28;20488;-77
2022/08/31 02:22:53;;;;;;;2.10;1.40;;;14.40;93.00;;;;;;5037228;28;20421;-77
2022/08/31 02:25:22;;;;;;;3.50;1.40;;;14.40;93.10;;;;;;5036262;28;20445;-77
2022/08/31 02:27:52;;;;;;;1.90;1.10;;;14.40;93.20;;;;;;5036606;28;20490;-77
2022/08/31 02:30:20;;;;;;;1.90;1.30;;;14.40;93.20;;;;;;5036308;28;20466;-77
2022/08/31 02:32:51;;;;;;;2.10;1.43;;;14.30;93.30;;;;;;5036276;28;21082;-77
2022/08/31 02:35:19;;;;;;;2.20;1.40;;;14.30;93.40;;;;;;5035609;28;20482;-77
2022/08/31 02:37:48;;;;;;;2.33;1.57;;;14.30;93.50;;;;;;5034913;28;20467;-76
2022/08/31 02:40:16;;;;;;;2.67;1.50;;;14.20;93.80;;;;;;5033685;28;20437;-78
2022/08/31 02:42:45;;;;;;;3.27;1.90;;;14.20;93.60;;;;;;5035403;28;20437;-76
2022/08/31 02:45:23;;;;;;;2.30;1.13;;;14.20;93.60;;;;;;5033706;28;20443;-77
2022/08/31 02:47:54;;;;;;;1.80;1.27;;;14.20;93.70;;;;;;5034187;28;20435;-77
2022/08/31 02:50:37;;;;;;;1.90;1.13;;;14.10;93.70;;;;;;5035060;28;20812;-77
2022/08/31 02:53:06;;;;;;;3.17;1.40;;;14.10;93.70;;;;;;5036193;28;20473;-77
2022/08/31 02:55:34;;;;;;;1.97;1.43;;;14.10;93.80;;;;;;5035797;28;20550;-77
2022/08/31 02:58:04;;;;;;;3.63;1.53;;;14.00;93.80;;;;;;5035396;28;20466;-77
2022/08/31 03:00:33;;;;;;;3.63;1.40;;;14.00;93.90;;;;;;5035558;28;20443;-77
2022/08/31 03:03:02;;;;;;;2.27;1.40;;;14.00;93.90;;;;;;5036214;28;20443;-77
2022/08/31 03:05:31;;;;;;;2.70;1.30;;;14.00;94.00;;;;;;5035330;28;20451;-77
2022/08/31 03:07:59;;;;;;;3.20;1.43;;;14.00;94.10;;;;;;5037105;28;20522;-77
2022/08/31 03:10:28;;;;;;;2.47;1.50;;;13.90;94.10;;;;;;5035027;28;20869;-76
2022/08/31 03:12:56;;;;;;;2.97;1.60;;;13.90;94.20;;;;;;5032540;28;20447;-77
2022/08/31 03:15:26;;;;;;;2.20;1.30;;;13.90;94.20;;;;;;5032423;28;20557;-76
2022/08/31 03:17:55;;;;;;;2.03;1.27;;;13.80;94.20;;;;;;5032452;28;20466;-76
2022/08/31 03:20:26;;;;;;;2.73;1.50;;;13.80;94.30;;;;;;5032818;28;20459;-76
2022/08/31 03:22:54;;;;;;;2.40;1.50;;;13.80;94.60;;;;;;5033947;28;20426;-77
2022/08/31 03:25:26;;;;;;;2.20;1.67;;;13.70;94.40;;;;;;5033026;28;20439;-76
2022/08/31 03:27:54;;;;;;;2.97;1.50;;;13.70;94.50;;;;;;5032249;28;20977;-76
2022/08/31 03:30:23;;;;;;;2.40;1.50;;;13.60;94.50;;;;;;5032217;28;20884;-77
2022/08/31 03:33:04;;;;;;;2.20;1.53;;;13.60;94.50;;;;;;5033309;28;20451;-77
2022/08/31 03:35:34;;;;;;;2.77;1.80;;;13.60;94.60;;;;;;5033928;28;20459;-76
2022/08/31 03:38:02;;;;;;;3.20;1.60;;;13.60;94.60;;;;;;5033607;28;20878;-77
2022/08/31 03:40:30;;;;;;;1.90;1.50;;;13.50;94.60;;;;;;5032198;28;20478;-76
2022/08/31 03:42:59;;;;;;;3.40;2.00;;;13.50;94.70;;;;;;5032310;28;20485;-76
2022/08/31 03:45:30;;;;;;;2.40;1.60;;;13.50;94.70;;;;;;5032403;28;20455;-76
2022/08/31 03:47:59;;;;;;;2.30;1.57;;;13.50;94.90;;;;;;5034188;28;20956;-77
2022/08/31 03:50:29;;;;;;;2.50;2.00;;;13.40;94.90;;;;;;5033976;28;20466;-77
2022/08/31 03:53:10;;;;;;;2.83;2.07;;;13.40;95.10;;;;;;5034075;28;20534;-77
2022/08/31 03:55:41;;;;;;;3.37;2.10;;;13.40;95.20;;;;;;5032671;28;21026;-76
2022/08/31 03:58:12;;;;;;;3.10;2.17;;;13.30;95.30;;;;;;5033247;28;20459;-76
2022/08/31 04:00:43;;;;;;;3.00;2.27;;;13.30;95.40;;;;;;5032344;28;20482;-77
2022/08/31 04:03:28;;;;;;;3.30;2.27;;;13.30;95.50;;;;;;5032820;28;20461;-77
2022/08/31 04:06:35;;;;;;;2.80;2.10;;;13.30;95.60;;;;;;5011516;28;20475;-76
2022/08/31 04:09:22;;;;;;;3.93;2.73;;;13.20;95.60;;;;;;5011751;28;20451;-75
2022/08/31 04:12:09;;;;;;;4.10;2.73;;;13.20;95.70;;;;;;5028125;28;20563;-77
2022/08/31 04:14:57;;;;;;;5.70;2.97;;;13.20;95.80;;;;;;5034290;28;20462;-77
2022/08/31 04:17:58;;;;;;;4.47;2.70;;;13.20;95.90;;;;;;5023558;28;20506;-77
2022/08/31 04:20:43;;;;;;;3.23;2.50;;;13.10;96.00;;;;;;5034115;28;20496;-77
2022/08/31 04:23:13;;;;;;;2.83;2.60;;;13.10;96.10;;;;;;5033327;28;20442;-77
2022/08/31 04:25:48;;;;;;;3.83;3.03;;;13.10;96.50;;;;;;5031907;28;20449;-76
2022/08/31 04:28:17;;;;;;;3.77;3.37;;;13.10;96.30;;;;;;5031880;28;20926;-76
2022/08/31 04:30:47;;;;;;;3.57;3.03;;;13.10;96.40;;;;;;5032112;28;20461;-76
2022/08/31 04:33:16;;;;;;;3.57;3.00;;;13.00;96.40;;;;;;5032868;28;20451;-77
2022/08/31 04:35:45;;;;;;;3.20;2.90;;;13.00;96.50;;;;;;5031716;28;20991;-76
2022/08/31 04:38:14;;;;;;;3.37;3.07;;;13.00;96.60;;;;;;5031562;28;20439;-76
2022/08/31 04:40:45;;;;;;;4.77;3.20;;;13.00;96.70;;;;;;5031806;28;20447;-76
2022/08/31 04:43:13;;;;;;;3.50;3.20;;;13.00;96.80;;;;;;5031714;28;20483;-76
2022/08/31 04:45:42;;;;;;;4.87;3.53;;;13.00;96.90;;;;;;5032871;28;20435;-76
2022/08/31 04:48:14;;;;;;;4.20;3.80;;;13.00;97.00;;;;;;5031541;28;20952;-76
2022/08/31 04:50:43;;;;;;;4.60;3.80;;;13.00;97.00;;;;;;5031586;28;20478;-76
2022/08/31 04:53:11;;;;;;;4.87;3.37;;;13.00;97.10;;;;;;5031516;28;20508;-76
2022/08/31 04:55:42;;;;;;;4.40;3.23;;;12.90;97.20;;;;;;5031451;28;20443;-76
2022/08/31 04:58:13;;;;;;;4.67;3.90;;;13.00;97.30;;;;;;5032069;28;20443;-76
2022/08/31 05:00:42;;;;;;;4.50;3.43;;;13.00;97.30;;;;;;5034896;28;20506;-76
2022/08/31 05:03:29;;;;;;;5.30;3.03;;;12.90;97.30;;;;;;5036221;28;20907;-76
2022/08/31 05:05:58;;;;;;;4.95;3.10;;;12.90;97.30;;;;;;5035040;28;20437;-76
2022/08/31 05:08:27;;;;;;;4.57;2.67;;;12.90;97.50;;;;;;5034762;28;20223;-75
2022/08/31 05:10:57;;;;;;;4.80;3.20;;;12.90;97.60;;;;;;5034940;28;20458;-76
2022/08/31 05:13:26;;;;;;;4.00;2.70;;;12.90;97.60;;;;;;5036526;28;20940;-76
2022/08/31 05:15:54;;;;;;;3.63;2.67;;;12.90;97.70;;;;;;5034735;28;20447;-75
2022/08/31 05:18:25;;;;;;;4.50;3.33;;;12.90;97.80;;;;;;5034692;28;20526;-76
2022/08/31 05:21:09;;;;;;;6.77;3.00;;;12.90;98.10;;;;;;5034892;28;20985;-76
2022/08/31 05:23:37;;;;;;;3.40;2.47;;;12.90;98.00;;;;;;5034679;28;20808;-76
2022/08/31 05:26:08;;;;;;;4.27;3.20;;;12.90;98.00;;;;;;5036082;28;20439;-77
2022/08/31 05:28:37;;;;;;;3.83;2.90;;;12.90;98.20;;;;;;5034424;28;20477;-76
2022/08/31 05:31:06;;;;;;;3.47;3.00;;;12.90;98.20;;;;;;5034488;28;20520;-76
2022/08/31 05:33:42;;;;;;;4.43;3.27;;;12.90;98.40;;;;;;5034797;28;20451;-76
2022/08/31 05:36:13;;;;;;;5.70;3.50;;;13.00;98.50;;;;;;5051235;28;20485;-77
2022/08/31 05:38:42;;;;;;;3.30;3.00;;;13.00;98.60;;;;;;5034327;28;20474;-76
2022/08/31 05:41:15;;;;;;;3.80;3.10;;;13.00;98.60;;;;;;5034323;28;20434;-76
2022/08/31 05:43:43;;;;;;;5.00;3.23;;;13.00;98.70;;;;;;5034632;28;20451;-76
2022/08/31 05:46:13;;;;;;;4.47;3.10;;;13.00;98.80;;;;;;5034141;28;20486;-76
2022/08/31 05:48:42;;;;;;;5.87;3.10;;;13.10;98.90;;;;;;5034142;28;20557;-76
2022/08/31 05:51:18;;;;;;;5.30;2.80;;;13.10;99.00;;;;;;5034184;28;20442;-76
2022/08/31 05:53:47;;;;;;;6.63;3.67;;;13.10;99.10;;;;;;5034027;28;20450;-77
2022/08/31 05:56:20;;;;;;;3.83;2.97;;;13.10;99.20;;;;;;5034085;28;20481;-76
2022/08/31 05:58:50;;;;;;;5.97;3.47;;;13.20;99.30;;;;;;5034228;28;20502;-77
2022/08/31 06:01:21;;;;;;;5.50;3.30;;;13.20;99.40;;;;;;5033986;28;20474;-77
2022/08/31 06:04:03;;;;;;;3.83;3.10;;;13.30;99.50;;;;;;5034103;28;21010;-77
2022/08/31 06:06:32;;;;;;;5.00;3.57;;;13.30;99.60;;;;;;5034640;28;20822;-76
2022/08/31 06:09:00;;;;;;;3.23;2.80;;;13.40;99.70;;;;;;5033651;28;20975;-76
2022/08/31 06:11:33;;;;;;;6.90;3.40;;;13.50;99.80;;;;;;5051212;28;20451;-75
2022/08/31 06:14:05;;;;;;;3.70;3.33;;;13.70;99.90;;;;;;5033943;28;20526;-77
2022/08/31 06:16:35;;;;;;;4.30;2.93;;;14.00;99.90;;;;;;5033642;28;20447;-77
2022/08/31 06:19:05;;;;;;;4.97;2.50;;;14.30;99.90;;;;;;5033387;28;20495;-76
2022/08/31 06:21:39;;;;;;;3.40;2.67;;;14.50;99.90;;;;;;5033933;28;20447;-75
2022/08/31 06:24:21;;;;;;;3.00;2.23;;;14.80;99.90;;;;;;5033787;28;20505;-76
2022/08/31 06:26:54;;;;;;;3.37;2.60;;;15.10;99.90;;;;;;5033377;28;20482;-77
2022/08/31 06:29:32;;;;;;;4.90;2.20;;;15.30;99.90;;;;;;5033517;28;20529;-76
2022/08/31 06:32:06;;;;;;;3.20;2.40;;;15.60;99.90;;;;;;5034484;28;20528;-75
2022/08/31 06:34:39;;;;;;;4.40;2.37;;;15.90;99.90;;;;;;5050794;28;20794;-76
2022/08/31 06:37:09;;;;;;;3.73;2.50;;;16.20;99.90;;;;;;5035441;28;20420;-76
2022/08/31 06:39:46;;;;;;;2.73;2.20;;;16.40;99.90;;;;;;5035372;28;20445;-77
2022/08/31 06:42:34;;;;;;;3.07;1.70;;;16.60;99.80;;;;;;5035322;28;20423;-75
2022/08/31 06:45:03;;;;;;;2.53;1.53;;;16.90;99.50;;;;;;5034565;28;20400;-75
2022/08/31 06:47:51;;;;;;;4.30;1.93;;;17.10;99.20;;;;;;5033131;28;20807;-76
2022/08/31 06:50:20;;;;;;;2.87;2.00;;;17.30;99.00;;;;;;5033008;28;20437;-76
2022/08/31 06:52:49;;;;;;;3.13;1.80;;;17.40;98.80;;;;;;5033750;28;20453;-76
2022/08/31 06:55:30;;;;;;;3.17;1.50;;;17.50;98.70;;;;;;5033278;28;20421;-76
2022/08/31 06:58:03;;;;;;;2.40;1.70;;;17.70;98.60;;;;;;5034933;28;20430;-76
2022/08/31 07:00:52;;;;;;;2.40;1.73;;;17.90;98.50;;;;;;5033723;28;20889;-76
2022/08/31 07:03:31;;;;;;;5.70;2.10;;;18.10;98.60;;;;;;5033151;28;20871;-76
2022/08/31 07:06:05;;;;;;;3.27;1.80;;;18.30;98.10;;;;;;5034310;28;20427;-76
2022/08/31 07:08:34;;;;;;;6.20;1.73;;;18.50;98.00;;;;;;5033347;28;20554;-76
2022/08/31 07:11:03;;;;;;;3.47;1.50;;;18.60;97.80;;;;;;5033026;28;20450;-76
2022/08/31 07:13:32;;;;;;;4.20;1.53;;;18.70;97.60;;;;;;5033249;28;20462;-76
2022/08/31 07:16:05;;;;;;;3.70;1.40;;;18.80;97.70;;;;;;5051201;28;20450;-76
2022/08/31 07:18:34;;;;;;;2.50;1.30;;;18.90;97.30;;;;;;5033649;28;20459;-77
2022/08/31 07:21:13;;;;;;;2.40;1.27;;;19.10;97.20;;;;;;5034849;28;20475;-76
2022/08/31 07:23:42;;;;;;;3.10;1.67;;;19.20;97.00;;;;;;5035322;28;20422;-77
2022/08/31 07:26:16;;;;;;;2.60;1.40;;;19.30;97.00;;;;;;5034632;28;20479;-77
2022/08/31 07:28:51;;;;;;;3.90;1.33;;;19.50;96.90;;;;;;5033981;28;20451;-77
2022/08/31 07:31:22;;;;;;;4.30;1.80;;;19.60;96.80;;;;;;5033061;28;20525;-77
2022/08/31 07:33:52;;;;;;;2.50;1.40;;;19.80;96.70;;;;;;5034528;28;20425;-77
2022/08/31 07:36:22;;;;;;;4.33;1.87;;;19.90;96.50;;;;;;5035255;28;20435;-76
2022/08/31 07:44:34;;;;;;;3.80;1.40;;;20.10;96.00;;;;;;5034609;28;20493;-77
2022/08/31 07:47:07;;;;;;;5.43;1.63;;;20.20;95.90;;;;;;5032996;28;20941;-77
2022/08/31 07:49:36;;;;;;;2.70;1.20;;;20.20;95.60;;;;;;5034517;28;20455;-78
2022/08/31 07:52:11;;;;;;;4.70;1.40;;;20.20;95.60;;;;;;5032972;28;20466;-78
2022/08/31 07:55:05;;;;;;;3.07;1.50;;;20.20;95.50;;;;;;5033330;28;20525;-77
2022/08/31 07:57:52;;;;;;;4.87;1.43;;;20.30;95.50;;;;;;5033742;28;20454;-77
2022/08/31 08:00:24;;;;;;;5.10;1.77;;;20.40;95.50;;;;;;5034776;28;20521;-77
2022/08/31 08:02:53;;;;;;;2.20;1.50;;;20.40;95.40;;;;;;5033118;28;20535;-77
2022/08/31 08:05:36;;;;;;;2.23;1.20;;;20.50;95.20;;;;;;5032376;28;20450;-77
2022/08/31 08:08:23;;;;;;;2.30;1.03;;;20.40;95.00;;;;;;5034387;28;20531;-76
2022/08/31 08:11:19;;;;;;;2.57;1.30;;;20.40;94.90;;;;;;5034154;28;20443;-77
2022/08/31 08:14:19;;;;;;;2.23;0.90;;;20.30;94.90;;;;;;5039565;28;20477;-78
2022/08/31 08:17:12;;;;;;;2.27;1.50;;;20.30;94.80;;;;;;5034390;28;20797;-77
2022/08/31 08:19:46;;;;;;;2.70;1.30;;;20.30;94.80;;;;;;5032486;28;20478;-78
2022/08/31 08:22:14;;;;;;;2.90;1.50;;;20.30;94.70;;;;;;5032237;28;20532;-77
2022/08/31 08:25:25;;;;;;;2.57;1.00;;;20.40;94.70;;;;;;5034002;28;20443;-76
2022/08/31 08:28:16;;;;;;;2.23;1.10;;;20.40;94.50;;;;;;5034195;28;20557;-77
2022/08/31 08:31:05;;;;;;;2.50;1.07;;;20.50;94.40;;;;;;5031774;28;20473;-77
2022/08/31 08:33:35;;;;;;;2.00;1.10;;;20.50;94.30;;;;;;5033500;28;20459;-78
2022/08/31 08:36:06;;;;;;;3.37;1.20;;;20.60;94.30;;;;;;5036412;28;20451;-77
2022/08/31 08:38:38;;;;;;;3.03;1.63;;;20.60;94.20;;;;;;5036987;28;20466;-77
2022/08/31 08:41:12;;;;;;;3.30;1.20;;;20.70;94.10;;;;;;5037130;28;20463;-79
2022/08/31 08:43:43;;;;;;;2.83;1.37;;;20.80;94.10;;;;;;5041388;28;20419;-76
2022/08/31 08:46:30;;;;;;;3.20;1.40;;;20.80;93.90;;;;;;5038052;28;20441;-78
2022/08/31 08:49:30;;;;;;;4.00;1.10;;;20.90;93.90;;;;;;5038856;28;20509;-78
2022/08/31 08:52:04;;;;;;;2.43;1.10;;;21.00;94.00;;;;;;5039055;28;20493;-77
2022/08/31 08:54:37;;;;;;;2.47;1.10;;;21.00;93.90;;;;;;5037744;28;20895;-77
2022/08/31 08:57:11;;;;;;;4.43;1.30;;;21.10;93.90;;;;;;5037468;28;20458;-76
2022/08/31 08:59:41;;;;;;;5.20;1.37;;;21.20;93.70;;;;;;5037383;28;20512;-78
2022/08/31 09:02:14;;;;;;;1.90;1.17;;;21.20;93.60;;;;;;5036038;28;20475;-77
2022/08/31 09:05:17;;;;;;;1.80;0.90;;;21.30;93.50;;;;;;5036021;28;20470;-77
2022/08/31 09:08:22;;;;;;;4.60;1.10;;;21.30;93.10;;;;;;5018276;28;20447;-76
2022/08/31 09:11:08;;;;;;;2.43;1.30;;;21.30;92.90;;;;;;5035951;28;20458;-76
2022/08/31 09:13:47;;;;;;;2.33;1.10;;;21.30;92.40;;;;;;5041179;28;20451;-79
2022/08/31 09:16:27;;;;;;;1.70;0.90;;;21.20;92.20;;;;;;5040517;28;20869;-78
2022/08/31 09:18:59;;;;;;;3.13;1.73;;;21.20;92.10;;;;;;5042503;28;20459;-78
2022/08/31 09:21:33;;;;;;;2.33;1.00;;;21.20;92.00;;;;;;5039639;28;20992;-78
2022/08/31 09:24:07;;;;;;;2.43;1.20;;;21.30;91.90;;;;;;5040525;28;20419;-78
2022/08/31 09:27:16;;;;;;;2.33;1.00;;;21.30;91.50;;;;;;5032385;28;20442;-78
2022/08/31 09:29:46;;;;;;;2.13;0.80;;;21.30;91.30;;;;;;5040163;28;20470;-78
2022/08/31 09:32:21;;;;;;;1.80;0.97;;;21.40;91.40;;;;;;5040836;28;20438;-79
2022/08/31 09:34:57;;;;;;;2.43;0.83;;;21.40;91.30;;;;;;5040052;28;20473;-78
2022/08/31 09:37:32;;;;;;;2.10;1.10;;;21.50;91.20;;;;;;5039214;28;20443;-77
2022/08/31 09:40:17;;;;;;;2.77;0.90;;;21.50;91.00;;;;;;5040759;28;20457;-78
2022/08/31 09:43:03;;;;;;;2.63;1.03;;;21.60;90.90;;;;;;5041265;28;20489;-78
2022/08/31 09:45:34;;;;;;;2.63;1.03;;;21.70;90.70;;;;;;5036396;28;20439;-78
2022/08/31 09:48:09;;;;;;;2.20;1.20;;;21.70;90.70;;;;;;5035592;28;20489;-76
2022/08/31 09:50:43;;;;;;;3.23;1.10;;;21.70;90.70;;;;;;5038314;28;20435;-78
2022/08/31 09:56:14;;;;;;;1.73;0.83;;;21.80;90.20;;;;;;5035916;28;20419;-77
2022/08/31 09:58:47;;;;;;;4.43;1.80;;;21.80;89.80;;;;;;5035116;28;20528;-77
2022/08/31 10:01:20;;;;;;;1.93;0.90;;;21.80;89.60;;;;;;5037766;28;20467;-77
2022/08/31 10:03:49;;;;;;;1.60;0.93;;;21.80;89.10;;;;;;5036854;28;20423;-78
2022/08/31 10:06:43;;;;;;;3.20;1.07;;;21.80;88.70;;;;;;5038561;28;20443;-77
2022/08/31 10:09:24;;;;;;;2.63;1.30;;;21.90;88.30;;;;;;5042056;28;20454;-79
2022/08/31 10:11:56;;;;;;;2.30;1.00;;;21.90;87.80;;;;;;5038952;28;20415;-77
2022/08/31 10:14:30;;;;;;;2.50;0.90;;;21.90;87.90;;;;;;5036336;28;20984;-77
2022/08/31 10:17:04;;;;;;;2.00;0.97;;;21.90;87.90;;;;;;5037254;28;20534;-77
2022/08/31 10:19:49;;;;;;;5.23;1.07;;;21.90;87.50;;;;;;5036597;28;20506;-77
2022/08/31 10:22:27;;;;;;;3.40;0.93;;;21.90;87.50;;;;;;5039421;28;20494;-78
2022/08/31 10:25:16;;;;;;;2.40;0.73;;;22.00;87.10;;;;;;5037022;28;20423;-77
2022/08/31 10:27:50;;;;;;;1.90;0.90;;;22.00;86.40;;;;;;5035589;28;20801;-78
2022/08/31 10:30:26;;;;;;;2.43;0.90;;;22.00;86.30;;;;;;5036088;28;20459;-77
2022/08/31 10:33:03;;;;;;;1.90;0.77;;;22.00;86.00;;;;;;5036900;28;20426;-77
2022/08/31 10:35:43;;;;;;;4.77;1.00;;;22.00;85.70;;;;;;5035597;28;20442;-76
2022/08/31 10:38:25;;;;;;;2.30;0.90;;;22.00;85.40;;;;;;5036329;28;20477;-77
2022/08/31 10:41:06;;;;;;;1.70;0.80;;;22.10;85.20;;;;;;5037764;28;20434;-77
2022/08/31 10:43:39;;;;;;;1.90;0.90;;;22.10;85.10;;;;;;5035959;28;20976;-77
2022/08/31 10:46:07;;;;;;;3.20;0.90;;;22.10;85.00;;;;;;5036518;28;20512;-77
2022/08/31 10:48:36;;;;;;;2.10;1.00;;;22.10;85.00;;;;;;5037872;28;20467;-77
2022/08/31 10:51:18;;;;;;;1.80;1.00;;;22.10;84.90;;;;;;5039102;28;20518;-77
2022/08/31 10:53:56;;;;;;;2.53;1.00;;;22.20;84.60;;;;;;5037403;28;20426;-77
2022/08/31 10:56:40;;;;;;;2.40;1.20;;;22.20;84.40;;;;;;5036199;28;20453;-77
2022/08/31 10:59:19;;;;;;;1.83;0.73;;;22.20;84.10;;;;;;5035327;28;20498;-77
2022/08/31 11:01:56;;;;;;;1.97;0.93;;;22.20;84.20;;;;;;5036316;28;20458;-78
2022/08/31 11:04:41;;;;;;;1.93;1.00;;;22.20;84.00;;;;;;5033780;28;20447;-77
2022/08/31 11:07:23;;;;;;;2.00;0.87;;;22.20;83.70;;;;;;5035218;28;20434;-76
2022/08/31 11:10:04;;;;;;;2.23;1.03;;;22.20;83.80;;;;;;5035291;28;20466;-79
2022/08/31 11:12:42;;;;;;;2.70;0.83;;;22.20;83.70;;;;;;5038438;28;20442;-79
2022/08/31 11:15:57;;;;;;;3.10;1.20;;;22.20;83.50;;;;;;5036370;28;20541;-77
2022/08/31 11:18:49;;;;;;;2.47;0.97;;;22.20;83.10;;;;;;4992140;28;20454;-78
2022/08/31 11:21:45;;;;;;;1.80;0.80;;;22.20;83.00;;;;;;5036959;28;20451;-78
2022/08/31 11:24:39;;;;;;;2.13;1.10;;;22.20;83.20;;;;;;5034982;28;20493;-78
2022/08/31 11:27:13;;;;;;;2.10;0.97;;;22.30;83.40;;;;;;5036982;28;20415;-77
2022/08/31 11:29:55;;;;;;;2.20;1.20;;;22.30;83.40;;;;;;5036160;28;20817;-77
2022/08/31 11:32:28;;;;;;;3.67;1.03;;;22.30;83.60;;;;;;5035131;28;20458;-77
2022/08/31 11:35:00;;;;;;;2.37;1.00;;;22.30;83.20;;;;;;5034003;28;20461;-78
2022/08/31 11:37:54;;;;;;;1.73;0.80;;;22.30;82.30;;;;;;5033560;28;20820;-77
2022/08/31 11:41:10;;;;;;;1.83;0.83;;;22.40;81.80;;;;;;5036642;28;20557;-78
2022/08/31 11:43:50;;;;;;;4.43;0.90;;;22.40;81.40;;;;;;5034655;28;20463;-77
2022/08/31 11:46:58;;;;;;;1.83;0.90;;;22.40;81.00;;;;;;5035305;28;20423;-77
2022/08/31 11:49:42;;;;;;;2.00;1.43;;;22.40;80.60;;;;;;5033036;28;20470;-75
2022/08/31 11:52:30;;;;;;;2.57;0.90;;;22.40;80.60;;;;;;5035751;28;20443;-78
2022/08/31 11:55:06;;;;;;;1.80;1.00;;;22.50;80.50;;;;;;5034416;28;20500;-77
2022/08/31 11:58:25;;;;;;;2.83;1.30;;;22.50;80.10;;;;;;5034113;28;20470;-79
2022/08/31 12:00:58;;;;;;;4.37;1.00;;;22.50;79.30;;;;;;5035680;28;20501;-77
2022/08/31 12:03:50;;;;;;;3.60;0.90;;;22.50;79.80;;;;;;5034672;28;20462;-77
2022/08/31 12:07:06;;;;;;;3.10;1.00;;;22.60;79.80;;;;;;5035459;28;20503;-77
2022/08/31 12:10:03;;;;;;;8.93;1.87;;;22.60;79.20;;;;;;5038755;28;20549;-76
2022/08/31 12:12:53;;;;;;;2.27;1.00;;;22.60;79.10;;;;;;5036867;28;20522;-76
2022/08/31 12:15:31;;;;;;;1.90;0.83;;;22.70;79.10;;;;;;5037973;28;20451;-77
2022/08/31 12:18:15;;;;;;;2.00;1.23;;;22.70;78.50;;;;;;5038375;28;20439;-77
2022/08/31 12:23:51;;;;;;;2.03;1.03;;;22.80;78.50;;;;;;5036117;28;20490;-76
2022/08/31 12:26:48;;;;;;;2.50;0.90;;;22.80;78.40;;;;;;5036040;28;20443;-77
2022/08/31 12:29:24;;;;;;;2.50;1.17;;;22.90;78.30;;;;;;5036999;28;20815;-77
2022/08/31 12:32:11;;;;;;;1.70;1.10;;;22.90;77.80;;;;;;5035612;28;20453;-77
2022/08/31 12:34:46;;;;;;;2.70;1.10;;;22.90;77.30;;;;;;5037421;28;20458;-76
2022/08/31 12:37:24;;;;;;;3.57;1.00;;;23.00;77.40;;;;;;5037156;28;20468;-76
2022/08/31 12:40:18;;;;;;;5.47;1.73;;;23.00;77.10;;;;;;5037047;28;20494;-76
2022/08/31 12:42:57;;;;;;;2.23;0.90;;;23.00;76.60;;;;;;5036678;28;20974;-76
2022/08/31 12:45:52;;;;;;;1.80;0.80;;;23.00;76.50;;;;;;5035616;28;20866;-76
2022/08/31 12:48:36;;;;;;;2.20;1.27;;;23.00;76.50;;;;;;5035462;28;20493;-76
2022/08/31 12:51:14;;;;;;;2.20;0.83;;;23.00;76.70;;;;;;5037276;28;20419;-76
2022/08/31 12:54:02;;;;;;;1.67;0.87;;;23.10;76.40;;;;;;5038224;28;20492;-76
2022/08/31 12:56:37;;;;;;;2.17;1.00;;;23.20;76.00;;;;;;5037102;28;20893;-77
2022/08/31 12:59:18;;;;;;;2.10;1.00;;;23.20;75.50;;;;;;5036745;28;20476;-77
2022/08/31 13:01:49;;;;;;;2.37;1.30;;;23.20;74.70;;;;;;5036520;28;20415;-76
2022/08/31 13:04:20;;;;;;;2.10;0.80;;;23.20;74.70;;;;;;5037041;28;20995;-77
2022/08/31 13:06:48;;;;;;;1.90;0.80;;;23.20;74.50;;;;;;5035307;28;20443;-77
2022/08/31 13:09:29;;;;;;;2.10;1.13;;;23.20;74.30;;;;;;5036291;28;20993;-76
2022/08/31 13:12:00;;;;;;;2.00;1.07;;;23.20;74.10;;;;;;5036868;28;20502;-77
2022/08/31 13:14:38;;;;;;;2.73;1.13;;;23.20;74.40;;;;;;5036687;28;20482;-77
2022/08/31 13:17:13;;;;;;;1.67;0.80;;;23.20;74.50;;;;;;5035002;28;20912;-76
2022/08/31 13:19:49;;;;;;;2.00;1.07;;;23.30;74.70;;;;;;5035681;28;20462;-76
2022/08/31 13:22:27;;;;;;;2.27;1.00;;;23.30;74.70;;;;;;5036038;28;20851;-76
2022/08/31 13:24:57;;;;;;;2.77;1.07;;;23.40;74.70;;;;;;5034833;28;20506;-76
2022/08/31 13:27:27;;;;;;;6.00;1.23;;;23.40;74.70;;;;;;5035778;28;20443;-77
2022/08/31 13:30:10;;;;;;;2.20;0.90;;;23.40;74.30;;;;;;5036261;28;20509;-76
2022/08/31 13:32:43;;;;;;;1.87;1.00;;;23.40;74.20;;;;;;5036633;28;20419;-76
2022/08/31 13:35:18;;;;;;;1.80;0.90;;;23.40;74.30;;;;;;5036176;28;20510;-76
2022/08/31 13:38:03;;;;;;;1.93;1.10;;;23.40;73.70;;;;;;5035740;28;20419;-77
2022/08/31 13:40:35;;;;;;;1.77;0.87;;;23.40;73.60;;;;;;5035859;28;20495;-76
2022/08/31 13:43:07;;;;;;;2.20;1.27;;;23.40;73.70;;;;;;5036094;28;20455;-75
2022/08/31 13:45:41;;;;;;;2.30;1.10;;;23.50;73.80;;;;;;5036132;28;20845;-77
2022/08/31 13:48:18;;;;;;;1.80;1.00;;;23.60;73.60;;;;;;5034299;28;20779;-76